createdAt,value
2018-10-02T00:01:39.704Z,101542.72
2018-10-02T00:04:07.793Z,101538.94
2018-10-02T00:06:35.842Z,101545.33
2018-10-02T00:09:04.744Z,101554.98
2018-10-02T00:11:38.278Z,101549.77
2018-10-02T00:14:11.784Z,101555.61
2018-10-02T00:16:39.832Z,101556.20
2018-10-02T00:19:07.897Z,101557.58
2018-10-02T00:21:35.949Z,101560.92
2018-10-02T00:24:04.001Z,101563.36
2018-10-02T00:26:32.056Z,101568.33
2018-10-02T00:29:00.116Z,101577.39
2018-10-02T00:31:28.227Z,101568.53
2018-10-02T00:33:56.241Z,101567.97
2018-10-02T00:36:24.313Z,101559.98
2018-10-02T00:38:52.384Z,101567.97
2018-10-02T00:41:20.479Z,101566.80
2018-10-02T00:43:48.545Z,101559.03
2018-10-02T00:46:16.624Z,101553.20
2018-10-02T00:48:44.761Z,101547.37
2018-10-02T00:51:12.820Z,101541.34
2018-10-02T00:53:40.880Z,101545.55
2018-10-02T00:56:08.945Z,101544.45
2018-10-02T00:58:36.992Z,101544.22
2018-10-02T01:01:05.064Z,101542.33
2018-10-02T01:03:33.111Z,101538.19
2018-10-02T01:06:01.260Z,101536.81
2018-10-02T01:08:29.312Z,101539.57
2018-10-02T01:10:57.364Z,101529.92
2018-10-02T01:13:25.416Z,101524.92
2018-10-02T01:15:53.475Z,101513.33
2018-10-02T01:18:21.524Z,101514.13
2018-10-02T01:20:49.581Z,101500.41
2018-10-02T01:23:17.662Z,101504.55
2018-10-02T01:25:45.752Z,101491.55
2018-10-02T01:28:13.868Z,101499.55
2018-10-02T01:30:41.933Z,101504.23
2018-10-02T01:33:10.080Z,101498.45
2018-10-02T01:35:38.152Z,101496.28
2018-10-02T01:38:06.192Z,101499.03
2018-10-02T01:40:34.253Z,101488.88
2018-10-02T01:43:02.308Z,101487.54
2018-10-02T01:45:30.392Z,101486.76
2018-10-02T01:47:58.457Z,101482.43
2018-10-02T01:50:26.552Z,101486.05
2018-10-02T01:52:54.608Z,101475.94
2018-10-02T01:55:22.673Z,101476.02
2018-10-02T01:57:50.708Z,101471.66
2018-10-02T02:00:18.775Z,101469.25
2018-10-02T02:02:46.864Z,101464.69
2018-10-02T02:05:14.929Z,101475.23
2018-10-02T02:07:42.980Z,101471.45
2018-10-02T02:10:11.044Z,101467.41
2018-10-02T02:12:39.115Z,101474.92
2018-10-02T02:15:07.173Z,101471.38
2018-10-02T02:17:35.228Z,101470.12
2018-10-02T02:20:03.376Z,101470.47
2018-10-02T02:22:31.436Z,101468.58
2018-10-02T02:24:59.512Z,101459.02
2018-10-02T02:27:27.606Z,101444.17
2018-10-02T02:29:55.664Z,101444.53
2018-10-02T02:32:23.732Z,101440.95
2018-10-02T02:34:51.780Z,101429.06
2018-10-02T02:37:19.833Z,101414.23
2018-10-02T02:39:47.888Z,101410.66
2018-10-02T02:42:15.968Z,101416.72
2018-10-02T02:44:44.027Z,101416.20
2018-10-02T02:47:17.529Z,101418.41
2018-10-02T02:49:50.915Z,101416.78
2018-10-02T02:52:21.104Z,101411.36
2018-10-02T02:54:49.153Z,101409.78
2018-10-02T02:57:17.222Z,101428.23
2018-10-02T02:59:45.269Z,101422.48
2018-10-02T03:02:13.328Z,101422.77
2018-10-02T03:04:41.385Z,101415.59
2018-10-02T03:07:09.448Z,101427.16
2018-10-02T03:09:37.509Z,101430.74
2018-10-02T03:12:05.576Z,101427.37
2018-10-02T03:14:33.639Z,101428.19
2018-10-02T03:17:01.704Z,101429.61
2018-10-02T03:19:29.756Z,101427.13
2018-10-02T03:21:57.919Z,101423.55
2018-10-02T03:24:25.888Z,101414.97
2018-10-02T03:26:53.948Z,101414.50
2018-10-02T03:29:22.000Z,101416.46
2018-10-02T03:31:50.061Z,101415.02
2018-10-02T03:34:18.121Z,101411.70
2018-10-02T03:36:46.181Z,101407.03
2018-10-02T03:39:14.228Z,101397.12
2018-10-02T03:41:42.290Z,101382.80
2018-10-02T03:44:10.342Z,101366.03
2018-10-02T03:46:38.453Z,101363.02
2018-10-02T03:49:06.708Z,101366.03
2018-10-02T03:51:34.761Z,101376.73
2018-10-02T03:54:02.833Z,101368.20
2018-10-02T03:56:30.896Z,101369.58
2018-10-02T03:58:58.953Z,101370.41
2018-10-02T04:01:27.012Z,101373.44
2018-10-02T04:03:55.064Z,101374.45
2018-10-02T04:06:23.133Z,101370.02
2018-10-02T04:08:51.183Z,101370.20
2018-10-02T04:11:19.425Z,101369.34
2018-10-02T04:13:47.477Z,101360.26
2018-10-02T04:16:15.548Z,101371.34
2018-10-02T04:18:43.593Z,101383.73
2018-10-02T04:21:11.677Z,101380.67
2018-10-02T04:23:39.744Z,101367.97
2018-10-02T04:26:08.099Z,101362.22
2018-10-02T04:28:36.169Z,101351.99
2018-10-02T04:31:04.225Z,101352.31
2018-10-02T04:33:32.333Z,101349.83
2018-10-02T04:36:00.352Z,101362.14
2018-10-02T04:38:28.412Z,101370.17
2018-10-02T04:40:56.468Z,101373.74
2018-10-02T04:43:24.532Z,101371.55
2018-10-02T04:45:52.588Z,101361.86
2018-10-02T04:48:20.657Z,101357.66
2018-10-02T04:50:48.707Z,101343.84
2018-10-02T04:53:16.776Z,101344.47
2018-10-02T04:55:44.904Z,101356.00
2018-10-02T04:58:12.930Z,101349.86
2018-10-02T05:00:40.988Z,101349.58
2018-10-02T05:03:09.056Z,101351.15
2018-10-02T05:05:37.120Z,101340.64
2018-10-02T05:08:05.312Z,101340.88
2018-10-02T05:10:33.369Z,101327.10
2018-10-02T05:13:01.438Z,101322.97
2018-10-02T05:15:29.508Z,101319.98
2018-10-02T05:17:57.573Z,101315.53
2018-10-02T05:20:25.636Z,101314.66
2018-10-02T05:22:53.713Z,101317.61
2018-10-02T05:25:21.761Z,101319.25
2018-10-02T05:27:49.845Z,101320.87
2018-10-02T05:30:17.889Z,101301.58
2018-10-02T05:32:45.961Z,101303.73
2018-10-02T05:35:14.108Z,101300.93
2018-10-02T05:37:42.094Z,101300.61
2018-10-02T05:40:10.177Z,101298.36
2018-10-02T05:42:38.259Z,101297.73
2018-10-02T05:45:07.046Z,101291.94
2018-10-02T05:47:35.131Z,101296.80
2018-10-02T05:50:03.218Z,101288.03
2018-10-02T05:52:31.325Z,101292.72
2018-10-02T05:54:59.383Z,101287.84
2018-10-02T05:57:27.494Z,101292.30
2018-10-02T05:59:55.564Z,101288.17
2018-10-02T06:02:26.906Z,101290.05
2018-10-02T06:04:55.341Z,101292.59
2018-10-02T06:07:23.405Z,101291.16
2018-10-02T06:09:51.504Z,101291.66
2018-10-02T06:12:19.577Z,101299.06
2018-10-02T06:14:47.637Z,101292.80
2018-10-02T06:17:15.726Z,101286.52
2018-10-02T06:19:43.801Z,101281.56
2018-10-02T06:22:11.861Z,101287.08
2018-10-02T06:24:40.378Z,101279.95
2018-10-02T06:27:08.415Z,101279.44
2018-10-02T06:29:36.474Z,101283.07
2018-10-02T06:32:04.931Z,101281.19
2018-10-02T06:34:33.013Z,101277.29
2018-10-02T06:37:01.081Z,101269.66
2018-10-02T06:39:31.417Z,101269.66
2018-10-02T06:42:00.498Z,101276.28
2018-10-02T06:44:29.128Z,101265.53
2018-10-02T06:46:57.218Z,101260.25
2018-10-02T06:49:25.298Z,101268.02
2018-10-02T06:51:53.396Z,101265.72
2018-10-02T06:54:21.665Z,101261.22
2018-10-02T06:56:49.765Z,101255.15
2018-10-02T06:59:17.813Z,101250.70
2018-10-02T07:01:45.933Z,101253.41
2018-10-02T07:04:14.049Z,101236.73
2018-10-02T07:06:42.235Z,101239.20
2018-10-02T07:09:10.903Z,101227.80
2018-10-02T07:11:39.990Z,101227.48
2018-10-02T07:14:08.635Z,101225.23
2018-10-02T07:16:36.846Z,101218.08
2018-10-02T07:19:05.138Z,101199.05
2018-10-02T07:21:33.206Z,101191.97
2018-10-02T07:24:01.286Z,101189.01
2018-10-02T07:26:29.375Z,101186.52
2018-10-02T07:28:57.521Z,101184.77
2018-10-02T07:31:25.606Z,101169.46
2018-10-02T07:33:53.807Z,101168.58
2018-10-02T07:36:21.827Z,101163.84
2018-10-02T07:38:49.946Z,101155.24
2018-10-02T07:41:17.970Z,101153.60
2018-10-02T07:43:46.037Z,101148.53
2018-10-02T07:46:14.105Z,101144.01
2018-10-02T07:48:42.182Z,101136.97
2018-10-02T07:51:10.245Z,101135.40
2018-10-02T07:53:38.368Z,101134.25
2018-10-02T07:56:06.701Z,101137.89
2018-10-02T07:58:34.753Z,101120.96
2018-10-02T08:01:02.849Z,101116.44
2018-10-02T08:03:30.906Z,101112.56
2018-10-02T08:05:59.018Z,101103.70
2018-10-02T08:08:27.076Z,101107.21
2018-10-02T08:10:55.153Z,101098.94
2018-10-02T08:13:23.407Z,101101.92
2018-10-02T08:15:51.467Z,101098.55
2018-10-02T08:18:19.537Z,101101.43
2018-10-02T08:20:47.657Z,101098.67
2018-10-02T08:23:15.676Z,101093.42
2018-10-02T08:25:48.453Z,101101.53
2018-10-02T08:28:17.920Z,101081.73
2018-10-02T08:30:45.985Z,101083.11
2018-10-02T08:33:14.057Z,101080.13
2018-10-02T08:35:42.396Z,101071.58
2018-10-02T08:38:10.739Z,101083.50
2018-10-02T08:40:38.817Z,101073.55
2018-10-02T08:43:07.294Z,101077.49
2018-10-02T08:45:35.477Z,101061.04
2018-10-02T08:48:03.560Z,101065.86
2018-10-02T08:50:31.669Z,101051.09
2018-10-02T08:52:59.689Z,101042.64
2018-10-02T08:55:27.773Z,101036.02
2018-10-02T08:57:56.008Z,101026.46
2018-10-02T09:00:24.108Z,101003.61
2018-10-02T09:02:52.246Z,101000.84
2018-10-02T09:05:20.318Z,101007.11
2018-10-02T09:07:48.383Z,101014.64
2018-10-02T09:10:16.483Z,100995.98
2018-10-02T09:12:44.595Z,101000.66
2018-10-02T09:15:12.615Z,100995.47
2018-10-02T09:17:40.670Z,100984.99
2018-10-02T09:20:08.852Z,100988.64
2018-10-02T09:22:36.906Z,100982.89
2018-10-02T09:25:05.067Z,100984.60
2018-10-02T09:27:33.142Z,100978.59
2018-10-02T09:30:06.542Z,100979.16
2018-10-02T09:32:40.133Z,100968.05
2018-10-02T09:35:13.433Z,100963.09
2018-10-02T09:37:46.948Z,100971.04
2018-10-02T09:40:20.298Z,100958.23
2018-10-02T09:42:53.723Z,100952.65
2018-10-02T09:45:21.812Z,100939.48
2018-10-02T09:47:49.881Z,100947.27
2018-10-02T09:50:17.955Z,100942.97
2018-10-02T09:52:46.001Z,100937.45
2018-10-02T09:55:14.088Z,100931.38
2018-10-02T09:57:42.214Z,100918.97
2018-10-02T10:00:15.810Z,100930.72
2018-10-02T10:02:44.036Z,100932.03
2018-10-02T10:05:12.018Z,100918.40
2018-10-02T10:07:40.130Z,100913.14
2018-10-02T10:10:08.224Z,100914.75
2018-10-02T10:12:36.304Z,100910.55
2018-10-02T10:15:04.354Z,100924.00
2018-10-02T10:17:32.482Z,100893.44
2018-10-02T10:20:00.501Z,100893.92
2018-10-02T10:22:28.603Z,100881.43
2018-10-02T10:24:56.681Z,100874.77
2018-10-02T10:27:24.770Z,100864.77
2018-10-02T10:29:52.858Z,100862.42
2018-10-02T10:32:20.934Z,100857.66
2018-10-02T10:34:49.088Z,100855.16
2018-10-02T10:37:17.100Z,100838.75
2018-10-02T10:39:45.233Z,100820.88
2018-10-02T10:42:13.269Z,100831.51
2018-10-02T10:44:41.350Z,100822.59
2018-10-02T10:47:09.422Z,100819.19
2018-10-02T10:49:37.493Z,100816.02
2018-10-02T10:52:05.581Z,100818.36
2018-10-02T10:54:33.652Z,100816.56
2018-10-02T10:57:01.734Z,100814.28
2018-10-02T10:59:29.819Z,100812.48
2018-10-02T11:01:57.957Z,100808.56
2018-10-02T11:04:26.079Z,100807.19
2018-10-02T11:06:54.121Z,100793.05
2018-10-02T11:09:22.257Z,100779.16
2018-10-02T11:11:50.338Z,100781.69
2018-10-02T11:14:18.422Z,100774.45
2018-10-02T11:16:46.498Z,100766.39
2018-10-02T11:19:14.570Z,100764.70
2018-10-02T11:21:42.660Z,100777.69
2018-10-02T11:24:10.779Z,100758.28
2018-10-02T11:26:38.828Z,100772.22
2018-10-02T11:29:06.949Z,100764.98
2018-10-02T11:31:35.043Z,100759.37
2018-10-02T11:34:03.141Z,100755.63
2018-10-02T11:36:31.226Z,100759.64
2018-10-02T11:38:59.296Z,100758.61
2018-10-02T11:41:27.393Z,100754.72
2018-10-02T11:43:55.500Z,100759.90
2018-10-02T11:46:23.541Z,100751.05
2018-10-02T11:48:51.638Z,100740.48
2018-10-02T11:51:19.703Z,100741.86
2018-10-02T11:53:47.775Z,100748.42
2018-10-02T11:56:15.846Z,100729.09
2018-10-02T11:58:43.918Z,100737.30
2018-10-02T12:01:12.033Z,100743.86
2018-10-02T12:03:40.128Z,100744.08
2018-10-02T12:06:08.215Z,100746.27
2018-10-02T12:08:36.298Z,100722.62
2018-10-02T12:11:04.590Z,100720.55
2018-10-02T12:13:32.709Z,100718.52
2018-10-02T12:16:00.814Z,100720.59
2018-10-02T12:18:28.897Z,100711.05
2018-10-02T12:20:56.965Z,100725.34
2018-10-02T12:23:25.037Z,100731.03
2018-10-02T12:25:53.100Z,100720.58
2018-10-02T12:28:21.185Z,100720.96
2018-10-02T12:30:49.252Z,100722.47
2018-10-02T12:33:17.337Z,100712.80
2018-10-02T12:35:45.533Z,100723.41
2018-10-02T12:38:13.609Z,100725.17
2018-10-02T12:40:41.674Z,100730.02
2018-10-02T12:43:09.742Z,100727.06
2018-10-02T12:45:37.815Z,100733.28
2018-10-02T12:48:06.146Z,100724.89
2018-10-02T12:50:34.422Z,100720.21
2018-10-02T12:53:02.581Z,100724.14
2018-10-02T12:55:30.658Z,100708.27
2018-10-02T12:57:58.777Z,100704.33
2018-10-02T13:00:26.857Z,100710.80
2018-10-02T13:02:54.943Z,100713.97
2018-10-02T13:05:23.027Z,100703.03
2018-10-02T13:07:51.149Z,100692.68
2018-10-02T13:10:19.217Z,100697.77
2018-10-02T13:12:47.289Z,100693.73
2018-10-02T13:15:15.358Z,100701.02
2018-10-02T13:17:43.461Z,100698.72
2018-10-02T13:20:11.550Z,100696.88
2018-10-02T13:22:39.625Z,100692.28
2018-10-02T13:25:07.715Z,100692.05
2018-10-02T13:27:35.785Z,100683.29
2018-10-02T13:30:03.965Z,100685.03
2018-10-02T13:32:32.036Z,100687.00
2018-10-02T13:35:00.126Z,100683.77
2018-10-02T13:37:28.204Z,100672.24
2018-10-02T13:39:56.269Z,100674.80
2018-10-02T13:42:24.330Z,100675.73
2018-10-02T13:44:52.428Z,100676.41
2018-10-02T13:47:20.524Z,100675.48
2018-10-02T13:49:48.657Z,100676.41
2018-10-02T13:52:16.752Z,100688.41
2018-10-02T13:54:44.841Z,100681.95
2018-10-02T13:57:12.905Z,100684.04
2018-10-02T13:59:41.006Z,100690.61
2018-10-02T14:02:09.111Z,100693.84
2018-10-02T14:04:37.186Z,100709.54
2018-10-02T14:07:05.257Z,100716.92
2018-10-02T14:09:33.340Z,100725.13
2018-10-02T14:12:01.405Z,100725.80
2018-10-02T14:14:29.481Z,100723.39
2018-10-02T14:16:57.591Z,100724.67
2018-10-02T14:19:25.680Z,100712.41
2018-10-02T14:21:53.845Z,100713.33
2018-10-02T14:24:21.924Z,100707.47
2018-10-02T14:26:49.993Z,100707.11
2018-10-02T14:29:18.064Z,100711.05
2018-10-02T14:31:46.130Z,100703.65
2018-10-02T14:34:14.221Z,100701.34
2018-10-02T14:36:42.325Z,100706.05
2018-10-02T14:39:11.375Z,100710.34
2018-10-02T14:41:39.621Z,100713.00
2018-10-02T14:44:07.909Z,100722.45
2018-10-02T14:46:35.969Z,100725.47
2018-10-02T14:49:04.109Z,100727.31
2018-10-02T14:51:32.291Z,100726.75
2018-10-02T14:54:00.701Z,100730.91
2018-10-02T14:56:28.775Z,100742.32
2018-10-02T14:58:56.843Z,100743.59
2018-10-02T15:01:25.041Z,100751.55
2018-10-02T15:03:53.155Z,100756.06
2018-10-02T15:06:21.249Z,100756.52
2018-10-02T15:08:49.363Z,100754.78
2018-10-02T15:11:17.422Z,100757.08
2018-10-02T15:13:45.597Z,100755.83
2018-10-02T15:16:13.669Z,100748.42
2018-10-02T15:18:41.745Z,100755.20
2018-10-02T15:21:09.873Z,100746.56
2018-10-02T15:23:37.941Z,100748.62
2018-10-02T15:26:06.080Z,100750.45
2018-10-02T15:28:34.188Z,100754.27
2018-10-02T15:31:02.274Z,100758.31
2018-10-02T15:33:30.346Z,100756.92
2018-10-02T15:35:58.417Z,100753.45
2018-10-02T15:38:26.546Z,100756.91
2018-10-02T15:40:54.569Z,100759.92
2018-10-02T15:43:22.630Z,100756.55
2018-10-02T15:45:50.706Z,100763.15
2018-10-02T15:48:18.753Z,100767.77
2018-10-02T15:50:46.824Z,100772.63
2018-10-02T15:53:14.892Z,100781.30
2018-10-02T15:55:43.029Z,100776.78
2018-10-02T15:58:11.116Z,100773.65
2018-10-02T16:00:39.170Z,100768.70
2018-10-02T16:03:07.233Z,100773.55
2018-10-02T16:05:35.308Z,100773.80
2018-10-02T16:08:03.410Z,100780.60
2018-10-02T16:10:31.497Z,100781.20
2018-10-02T16:12:59.561Z,100770.31
2018-10-02T16:15:27.833Z,100771.13
2018-10-02T16:17:55.918Z,100771.82
2018-10-02T16:20:24.129Z,100776.34
2018-10-02T16:22:52.225Z,100783.06
2018-10-02T16:25:20.313Z,100786.77
2018-10-02T16:27:48.565Z,100786.06
2018-10-02T16:30:16.589Z,100791.73
2018-10-02T16:32:44.661Z,100786.78
2018-10-02T16:35:12.800Z,100796.14
2018-10-02T16:37:40.940Z,100807.81
2018-10-02T16:40:09.026Z,100800.66
2018-10-02T16:42:37.105Z,100810.13
2018-10-02T16:45:05.173Z,100815.78
2018-10-02T16:47:33.256Z,100834.27
2018-10-02T16:50:01.310Z,100823.19
2018-10-02T16:52:29.460Z,100820.66
2018-10-02T16:54:57.566Z,100835.34
2018-10-02T16:57:25.641Z,100830.02
2018-10-02T16:59:53.749Z,100828.84
2018-10-02T17:02:21.805Z,100835.98
2018-10-02T17:04:49.871Z,100838.08
2018-10-02T17:07:17.940Z,100836.23
2018-10-02T17:09:46.003Z,100844.55
2018-10-02T17:12:14.072Z,100840.59
2018-10-02T17:14:42.957Z,100844.05
2018-10-02T17:17:11.037Z,100831.46
2018-10-02T17:19:39.285Z,100826.84
2018-10-02T17:22:07.468Z,100835.61
2018-10-02T17:24:35.556Z,100844.03
2018-10-02T17:27:03.621Z,100856.28
2018-10-02T17:29:31.682Z,100848.43
2018-10-02T17:31:59.844Z,100850.63
2018-10-02T17:34:27.941Z,100847.27
2018-10-02T17:36:56.000Z,100844.73
2018-10-02T17:39:24.085Z,100843.35
2018-10-02T17:41:52.169Z,100844.64
2018-10-02T17:44:20.230Z,100845.42
2018-10-02T17:46:48.305Z,100840.80
2018-10-02T17:49:16.369Z,100844.39
2018-10-02T17:51:44.441Z,100838.28
2018-10-02T17:54:12.500Z,100834.69
2018-10-02T17:56:40.605Z,100832.27
2018-10-02T17:59:08.669Z,100837.34
2018-10-02T18:01:36.793Z,100826.47
2018-10-02T18:04:04.870Z,100838.01
2018-10-02T18:06:32.950Z,100841.48
2018-10-02T18:09:01.029Z,100843.67
2018-10-02T18:11:29.092Z,100851.98
2018-10-02T18:13:57.170Z,100855.78
2018-10-02T18:16:25.241Z,100856.00
2018-10-02T18:18:53.325Z,100862.83
2018-10-02T18:21:21.394Z,100858.92
2018-10-02T18:23:49.533Z,100859.70
2018-10-02T18:26:17.633Z,100854.98
2018-10-02T18:28:45.725Z,100859.23
2018-10-02T18:31:13.805Z,100860.63
2018-10-02T18:33:41.931Z,100855.22
2018-10-02T18:36:10.007Z,100854.75
2018-10-02T18:38:38.458Z,100853.47
2018-10-02T18:41:06.540Z,100853.81
2018-10-02T18:43:34.625Z,100860.84
2018-10-02T18:46:02.884Z,100859.45
2018-10-02T18:48:30.970Z,100866.59
2018-10-02T18:50:59.076Z,100862.12
2018-10-02T18:53:27.184Z,100859.00
2018-10-02T18:55:55.249Z,100869.38
2018-10-02T18:58:23.623Z,100886.25
2018-10-02T19:00:51.685Z,100875.99
2018-10-02T19:03:19.774Z,100886.01
2018-10-02T19:05:47.854Z,100888.20
2018-10-02T19:08:19.802Z,100884.30
2018-10-02T19:10:47.865Z,100883.48
2018-10-02T19:13:15.929Z,100884.87
2018-10-02T19:15:49.462Z,100896.62
2018-10-02T19:18:17.540Z,100912.45
2018-10-02T19:20:47.916Z,100914.97
2018-10-02T19:23:16.033Z,100920.61
2018-10-02T19:25:49.401Z,100913.19
2018-10-02T19:28:17.510Z,100903.82
2018-10-02T19:30:50.941Z,100906.34
2018-10-02T19:33:19.021Z,100894.30
2018-10-02T19:35:47.092Z,100901.76
2018-10-02T19:38:20.591Z,100898.05
2018-10-02T19:40:48.752Z,100901.16
2018-10-02T19:43:16.825Z,100895.15
2018-10-02T19:45:50.372Z,100899.14
2018-10-02T19:48:18.436Z,100912.51
2018-10-02T19:50:46.524Z,100919.86
2018-10-02T19:53:14.603Z,100919.98
2018-10-02T19:55:42.673Z,100916.15
2018-10-02T19:58:10.757Z,100910.73
2018-10-02T20:00:38.831Z,100905.30
2018-10-02T20:03:06.973Z,100894.88
2018-10-02T20:05:35.058Z,100903.31
2018-10-02T20:08:03.209Z,100898.09
2018-10-02T20:10:31.314Z,100893.59
2018-10-02T20:12:59.394Z,100897.73
2018-10-02T20:15:27.478Z,100897.95
2018-10-02T20:17:55.663Z,100902.54
2018-10-02T20:20:23.741Z,100904.02
2018-10-02T20:22:51.813Z,100906.53
2018-10-02T20:25:19.902Z,100893.61
2018-10-02T20:27:47.969Z,100897.75
2018-10-02T20:30:16.041Z,100894.73
2018-10-02T20:32:44.206Z,100898.09
2018-10-02T20:35:12.277Z,100904.89
2018-10-02T20:37:40.351Z,100896.84
2018-10-02T20:40:08.463Z,100895.46
2018-10-02T20:42:36.531Z,100892.22
2018-10-02T20:45:04.609Z,100889.36
2018-10-02T20:47:32.687Z,100896.19
2018-10-02T20:50:00.764Z,100910.02
2018-10-02T20:52:28.833Z,100900.59
2018-10-02T20:54:56.906Z,100922.38
2018-10-02T20:57:24.974Z,100937.25
2018-10-02T20:59:53.053Z,100943.95
2018-10-02T21:02:21.115Z,100942.31
2018-10-02T21:04:49.194Z,100963.40
2018-10-02T21:07:17.380Z,100939.97
2018-10-02T21:09:45.406Z,100946.07
2018-10-02T21:12:13.477Z,100938.08
2018-10-02T21:14:41.550Z,100921.70
2018-10-02T21:17:09.641Z,100922.83
2018-10-02T21:19:37.834Z,100913.96
2018-10-02T21:22:05.945Z,100915.59
2018-10-02T21:24:34.033Z,100906.48
2018-10-02T21:27:02.103Z,100913.14
2018-10-02T21:29:30.181Z,100909.56
2018-10-02T21:31:58.253Z,100912.92
2018-10-02T21:34:26.443Z,100904.94
2018-10-02T21:36:54.489Z,100910.72
2018-10-02T21:39:22.580Z,100903.80
2018-10-02T21:41:50.649Z,100907.14
2018-10-02T21:44:18.717Z,100899.88
2018-10-02T21:46:46.765Z,100897.71
2018-10-02T21:49:14.828Z,100894.95
2018-10-02T21:51:42.890Z,100895.98
2018-10-02T21:54:10.958Z,100903.16
2018-10-02T21:56:39.039Z,100909.95
2018-10-02T21:59:07.142Z,100906.95
2018-10-02T22:01:35.213Z,100898.58
2018-10-02T22:04:03.285Z,100908.98
2018-10-02T22:06:31.354Z,100920.61
2018-10-02T22:08:59.425Z,100931.93
2018-10-02T22:11:27.508Z,100934.44
2018-10-02T22:13:55.561Z,100948.02
2018-10-02T22:16:23.633Z,100944.21
2018-10-02T22:18:51.693Z,100958.05
2018-10-02T22:21:19.773Z,100960.89
2018-10-02T22:23:47.908Z,100954.06
2018-10-02T22:26:15.976Z,100953.20
2018-10-02T22:28:44.078Z,100946.84
2018-10-02T22:31:12.145Z,100935.00
2018-10-02T22:33:40.255Z,100924.84
2018-10-02T22:36:08.297Z,100922.98
2018-10-02T22:38:36.345Z,100917.45
2018-10-02T22:41:04.433Z,100925.02
2018-10-02T22:43:32.497Z,100911.28
2018-10-02T22:46:00.567Z,100921.30
2018-10-02T22:48:28.642Z,100925.44
2018-10-02T22:50:56.741Z,100920.59
2018-10-02T22:53:24.805Z,100917.48
2018-10-02T22:55:53.049Z,100924.63
2018-10-02T22:58:21.117Z,100934.08
2018-10-02T23:00:49.461Z,100936.59
2018-10-02T23:03:17.652Z,100936.59
2018-10-02T23:05:45.750Z,100933.27
2018-10-02T23:08:13.809Z,100940.99
2018-10-02T23:10:41.890Z,100943.62
2018-10-02T23:13:09.985Z,100949.45
2018-10-02T23:15:38.123Z,100943.28
2018-10-02T23:18:06.326Z,100947.42
2018-10-02T23:20:34.571Z,100945.96
2018-10-02T23:23:02.625Z,100946.05
2018-10-02T23:25:30.804Z,100951.91
2018-10-02T23:27:58.905Z,100946.95
2018-10-02T23:30:26.969Z,100948.55
2018-10-02T23:32:55.060Z,100932.78
2018-10-02T23:35:23.146Z,100931.17
2018-10-02T23:37:51.457Z,100919.30
2018-10-02T23:40:19.519Z,100942.32
2018-10-02T23:42:47.624Z,100942.88
2018-10-02T23:45:15.713Z,100966.16
2018-10-02T23:47:43.785Z,100967.28
2018-10-02T23:50:11.832Z,100959.89
2018-10-02T23:52:39.932Z,100967.62
2018-10-02T23:55:08.017Z,100966.58
2018-10-02T23:57:36.142Z,100987.54
